createdAt,value
2022-10-24T06:36:15.317Z,26.88
2022-10-24T06:38:43.310Z,33.47
2022-10-24T06:41:13.994Z,34.88
2022-10-24T06:46:14.312Z,47.97
2022-10-24T06:48:42.307Z,27.13
2022-10-24T06:51:10.246Z,23.27
2022-10-24T06:53:38.092Z,24.98
2022-10-24T06:56:06.762Z,29.98
2022-10-24T06:58:37.314Z,29.45
2022-10-24T07:01:24.285Z,24.05
2022-10-24T07:03:53.281Z,53.45
2022-10-24T07:06:25.942Z,56.75
2022-10-24T07:08:57.750Z,46.90
2022-10-24T07:11:26.825Z,46.90
2022-10-24T07:13:57.975Z,33.58
2022-10-24T07:16:30.127Z,26.92
2022-10-24T07:18:58.372Z,33.95
2022-10-24T07:21:30.898Z,30.52
2022-10-24T07:23:59.245Z,31.48
2022-10-24T07:26:28.769Z,29.75
2022-10-24T07:29:04.138Z,43.60
2022-10-24T07:31:35.465Z,23.35
2022-10-24T07:34:07.458Z,17.08
2022-10-24T07:36:36.955Z,16.70
2022-10-24T07:39:08.074Z,12.27
2022-10-24T07:41:40.738Z,22.20
2022-10-24T07:44:10.263Z,18.50
2022-10-24T07:46:38.516Z,25.02
2022-10-24T07:49:06.260Z,21.48
2022-10-24T07:51:33.972Z,19.45
2022-10-24T07:54:01.959Z,20.48
2022-10-24T07:56:29.612Z,21.60
2022-10-24T07:58:58.967Z,17.20
2022-10-24T08:01:28.658Z,15.90
2022-10-24T08:03:57.758Z,16.00
2022-10-24T08:06:30.721Z,13.32
2022-10-24T08:08:58.720Z,16.70
2022-10-24T08:11:28.752Z,18.13
2022-10-24T08:13:59.818Z,19.63
2022-10-24T08:16:27.547Z,17.42
2022-10-24T08:18:58.024Z,13.00
2022-10-24T08:21:26.594Z,12.90
2022-10-24T08:23:55.179Z,18.73
2022-10-24T08:26:26.225Z,16.55
2022-10-24T08:28:55.730Z,14.75
2022-10-24T08:31:26.155Z,11.73
2022-10-24T08:33:55.661Z,13.88
2022-10-24T08:36:33.102Z,15.27
2022-10-24T08:39:02.419Z,15.75
2022-10-24T08:41:38.055Z,14.10
2022-10-24T08:44:30.338Z,12.13
2022-10-24T08:50:31.834Z,11.50
2022-10-24T08:53:29.073Z,11.18
2022-10-24T08:56:00.951Z,10.02
2022-10-24T08:58:39.797Z,13.35
2022-10-24T09:01:41.081Z,13.32
2022-10-24T09:04:16.233Z,13.35
2022-10-24T09:06:45.435Z,13.63
2022-10-24T09:09:22.042Z,16.75
2022-10-24T09:14:36.183Z,15.43
2022-10-24T09:17:37.916Z,15.07
2022-10-24T09:20:20.538Z,10.95
2022-10-24T09:22:49.114Z,12.88
2022-10-24T09:25:23.572Z,12.30
2022-10-24T09:27:52.148Z,12.57
2022-10-24T09:30:30.087Z,11.88
2022-10-24T09:33:24.066Z,11.40
2022-10-24T09:35:55.579Z,10.90
2022-10-24T09:38:23.141Z,9.07
2022-10-24T09:41:06.232Z,9.32
2022-10-24T09:43:51.102Z,8.55
2022-10-24T09:46:26.791Z,7.57
2022-10-24T09:48:58.415Z,6.97
2022-10-24T09:51:37.478Z,6.95
2022-10-24T09:54:20.031Z,7.18
2022-10-24T09:56:54.731Z,4.35
2022-10-24T09:59:44.278Z,4.18
2022-10-24T10:02:34.451Z,6.05
2022-10-24T10:05:04.855Z,8.57
2022-10-24T10:07:48.477Z,7.00
2022-10-24T10:10:18.845Z,4.32
2022-10-24T10:12:58.006Z,4.32
2022-10-24T10:15:38.043Z,3.75
2022-10-24T10:18:21.792Z,3.70
2022-10-24T10:21:00.927Z,4.18
2022-10-24T10:23:42.109Z,3.58
2022-10-24T10:26:43.656Z,3.75
2022-10-24T10:29:17.147Z,3.88
2022-10-24T10:31:50.669Z,3.55
2022-10-24T10:34:25.685Z,3.08
2022-10-24T10:37:02.062Z,3.22
2022-10-24T10:40:33.698Z,3.30
2022-10-24T10:43:22.498Z,3.97
2022-10-24T10:46:12.249Z,10.38
2022-10-24T10:48:58.336Z,7.78
2022-10-24T10:51:56.381Z,3.70
2022-10-24T10:54:49.302Z,3.97
2022-10-24T10:57:49.012Z,3.22
2022-10-24T11:01:00.723Z,3.35
2022-10-24T11:04:12.570Z,3.40
2022-10-24T11:07:26.456Z,3.13
2022-10-24T11:10:02.552Z,4.07
2022-10-24T11:12:38.870Z,4.95
2022-10-24T11:18:11.733Z,4.50
2022-10-24T11:20:51.285Z,4.68
2022-10-24T11:23:47.350Z,4.43
2022-10-24T11:26:43.419Z,3.80
2022-10-24T11:29:40.544Z,4.07
2022-10-24T11:32:24.093Z,4.10
2022-10-24T11:35:27.999Z,6.20
2022-10-24T11:38:20.111Z,10.50
2022-10-24T11:40:58.710Z,4.45
2022-10-24T11:43:37.951Z,6.57
2022-10-24T11:46:22.123Z,9.77
2022-10-24T11:49:00.418Z,5.88
2022-10-24T11:51:43.814Z,4.65
2022-10-24T11:54:25.366Z,5.35
2022-10-24T11:57:04.305Z,5.35
2022-10-24T11:59:32.093Z,4.47
2022-10-24T12:02:48.634Z,5.35
2022-10-24T12:05:47.560Z,5.28
2022-10-24T12:09:07.727Z,7.65
2022-10-24T12:12:09.777Z,6.30
2022-10-24T12:15:05.608Z,6.38
2022-10-24T12:18:10.339Z,5.03
2022-10-24T12:20:40.371Z,5.38
2022-10-24T12:23:20.962Z,5.85
2022-10-24T12:26:02.546Z,6.65
2022-10-24T12:28:30.262Z,6.05
2022-10-24T12:31:15.934Z,5.75
2022-10-24T12:33:46.837Z,5.90
2022-10-24T12:36:14.972Z,6.50
2022-10-24T12:38:42.844Z,5.57
2022-10-24T12:41:32.219Z,5.75
2022-10-24T12:44:34.043Z,6.63
2022-10-24T12:47:36.469Z,5.95
2022-10-24T12:50:36.279Z,6.22
2022-10-24T12:53:30.602Z,8.13
2022-10-24T12:56:10.603Z,6.45
2022-10-24T12:58:42.765Z,6.45
2022-10-24T13:01:35.640Z,6.65
2022-10-24T13:04:40.619Z,6.30
2022-10-24T13:07:35.393Z,6.65
2022-10-24T13:10:39.723Z,7.03
2022-10-24T13:13:44.579Z,6.30
2022-10-24T13:16:19.433Z,6.97
2022-10-24T13:19:17.232Z,6.32
2022-10-24T13:21:50.212Z,7.57
2022-10-24T13:24:19.897Z,7.95
2022-10-24T13:29:23.459Z,10.35
2022-10-24T13:31:54.760Z,7.15
2022-10-24T13:34:51.253Z,9.35
2022-10-24T13:37:40.758Z,8.20
2022-10-24T13:40:10.865Z,7.88
2022-10-24T13:42:51.003Z,6.30
2022-10-24T13:45:32.398Z,5.53
2022-10-24T13:48:11.201Z,5.38
2022-10-24T13:50:52.112Z,5.47
2022-10-24T13:53:30.526Z,6.75
2022-10-24T13:56:13.572Z,6.38
2022-10-24T14:01:22.377Z,6.93
2022-10-24T14:03:52.809Z,6.60
2022-10-24T14:06:32.790Z,6.80
2022-10-24T14:09:10.336Z,6.70
2022-10-24T14:11:59.348Z,7.28
2022-10-24T14:14:34.475Z,7.35
2022-10-24T14:17:07.111Z,7.53
2022-10-24T14:19:38.393Z,7.15
2022-10-24T14:22:21.372Z,7.60
2022-10-24T14:24:50.056Z,9.75
2022-10-24T14:27:20.229Z,8.30
2022-10-24T14:30:05.164Z,8.10
2022-10-24T14:32:32.985Z,7.53
2022-10-24T14:37:38.591Z,6.63
2022-10-24T14:40:17.442Z,5.78
2022-10-24T14:42:49.199Z,5.97
2022-10-24T14:45:30.516Z,5.35
2022-10-24T14:48:00.685Z,6.07
2022-10-24T14:50:42.637Z,5.68
2022-10-24T14:53:28.667Z,6.75
2022-10-24T14:56:00.207Z,6.53
2022-10-24T14:58:32.090Z,6.00
2022-10-24T15:01:00.603Z,6.25
2022-10-24T15:03:29.840Z,5.93
2022-10-24T15:06:25.573Z,6.30
2022-10-24T15:09:10.432Z,6.95
2022-10-24T15:11:42.589Z,7.25
2022-10-24T15:14:37.904Z,8.55
2022-10-24T15:17:32.461Z,11.85
2022-10-24T15:20:03.471Z,7.30
2022-10-24T15:22:36.254Z,6.75
2022-10-24T15:27:59.473Z,10.10
2022-10-24T15:30:33.853Z,10.85
2022-10-24T15:33:04.275Z,8.98
2022-10-24T15:35:40.780Z,7.70
2022-10-24T15:38:18.717Z,7.35
2022-10-24T15:40:49.114Z,10.30
2022-10-24T15:43:19.781Z,12.00
2022-10-24T15:45:47.640Z,12.13
2022-10-24T15:48:15.343Z,10.70
2022-10-24T15:50:46.789Z,11.15
2022-10-24T15:53:22.112Z,14.30
2022-10-24T15:55:49.833Z,15.10
2022-10-24T15:58:18.521Z,17.83
2022-10-24T16:00:46.497Z,12.88
2022-10-24T16:03:21.766Z,16.67
2022-10-24T16:05:54.498Z,13.73
2022-10-24T16:08:24.145Z,12.52
2022-10-24T16:10:53.447Z,12.43
2022-10-24T16:13:23.122Z,12.23
2022-10-24T16:15:51.034Z,10.52
2022-10-24T16:18:18.780Z,13.13
2022-10-24T16:20:47.274Z,26.13
2022-10-24T16:23:16.580Z,32.28
2022-10-24T16:25:45.010Z,27.23
2022-10-24T16:28:12.858Z,17.65
2022-10-24T16:30:41.432Z,12.93
2022-10-24T16:33:09.540Z,16.13
2022-10-24T16:35:39.241Z,18.70
2022-10-24T16:38:09.574Z,20.50
2022-10-24T16:40:47.546Z,22.60
2022-10-24T16:43:19.423Z,19.33
2022-10-24T16:46:03.573Z,20.63
2022-10-24T16:48:31.300Z,16.60
2022-10-24T16:50:59.329Z,21.58
2022-10-24T16:53:27.085Z,28.42
2022-10-24T16:55:56.454Z,31.90
2022-10-24T16:58:24.787Z,26.08
2022-10-24T17:01:04.441Z,17.92
2022-10-24T17:03:32.964Z,14.82
2022-10-24T17:06:00.869Z,13.60
2022-10-24T17:08:29.838Z,14.57
2022-10-24T17:10:58.678Z,15.23
2022-10-24T17:13:27.018Z,14.35
2022-10-24T17:15:55.193Z,17.05
2022-10-24T17:18:25.427Z,16.63
2022-10-24T17:21:00.206Z,15.85
2022-10-24T17:23:28.723Z,21.23
2022-10-24T17:25:56.669Z,29.92
2022-10-24T17:28:25.038Z,31.08
2022-10-24T17:33:25.815Z,17.08
2022-10-24T17:35:57.351Z,15.65
2022-10-24T17:38:44.269Z,22.10
2022-10-24T17:41:26.093Z,29.75
2022-10-24T17:43:54.765Z,26.00
2022-10-24T17:46:22.895Z,25.55
2022-10-24T17:48:51.141Z,26.88
2022-10-24T17:51:23.728Z,23.42
2022-10-24T17:53:51.731Z,20.55
2022-10-24T17:56:23.136Z,25.45
2022-10-24T17:58:53.310Z,32.08
2022-10-24T18:01:21.230Z,31.00
2022-10-24T18:03:48.969Z,33.15
2022-10-24T18:06:17.711Z,30.77
2022-10-24T18:08:45.530Z,29.77
2022-10-24T18:11:14.682Z,28.85
2022-10-24T18:13:42.664Z,25.13
2022-10-24T18:16:14.368Z,23.98
2022-10-24T18:18:43.065Z,18.27
2022-10-24T18:21:13.772Z,14.95
2022-10-24T18:23:41.760Z,18.00
2022-10-24T18:26:16.011Z,19.63
2022-10-24T18:28:46.550Z,18.80
2022-10-24T18:31:23.973Z,17.58
2022-10-24T18:33:52.391Z,19.80
2022-10-24T18:36:25.190Z,19.65
2022-10-24T18:38:57.885Z,19.08
2022-10-24T18:41:30.914Z,20.02
2022-10-24T18:44:02.873Z,16.67
2022-10-24T18:46:31.381Z,15.68
2022-10-24T18:49:00.813Z,17.52
2022-10-24T18:51:42.169Z,12.15
2022-10-24T18:56:50.447Z,11.70
2022-10-24T18:59:21.475Z,16.17
2022-10-24T19:02:14.456Z,20.90
2022-10-24T19:04:49.330Z,19.55
2022-10-24T19:07:21.103Z,17.55
2022-10-24T19:09:48.889Z,14.68
2022-10-24T19:12:17.283Z,14.60
2022-10-24T19:14:45.935Z,15.10
2022-10-24T19:17:16.322Z,15.05
2022-10-24T19:19:44.213Z,15.98
2022-10-24T19:22:11.925Z,16.25
2022-10-24T19:24:40.377Z,15.50
2022-10-24T19:27:08.115Z,12.65
2022-10-24T19:29:35.823Z,13.75
2022-10-24T19:32:03.577Z,17.92
2022-10-24T19:34:31.792Z,129.68
2022-10-24T19:37:00.091Z,38.40
2022-10-24T19:39:33.872Z,22.85
2022-10-24T19:42:01.887Z,18.63
2022-10-24T19:44:29.598Z,16.15
2022-10-24T19:46:57.386Z,18.02
2022-10-24T19:49:25.291Z,13.30
2022-10-24T19:51:54.181Z,11.07
2022-10-24T19:54:21.796Z,12.00
2022-10-24T19:56:49.508Z,11.13
2022-10-24T19:59:17.177Z,10.88
2022-10-24T20:01:44.961Z,12.43
2022-10-24T20:04:14.712Z,12.48
2022-10-24T20:06:42.905Z,15.00
2022-10-24T20:09:11.375Z,14.52
2022-10-24T20:11:39.279Z,14.85
2022-10-24T20:14:07.481Z,18.23
2022-10-24T20:16:35.326Z,16.05
2022-10-24T20:19:03.949Z,16.02
2022-10-24T20:21:34.073Z,17.10
2022-10-24T20:24:01.938Z,16.45
2022-10-24T20:26:29.612Z,15.88
2022-10-24T20:28:58.415Z,14.43
2022-10-24T20:31:34.368Z,12.15
2022-10-24T20:34:09.609Z,11.02
2022-10-24T20:36:40.727Z,17.25
2022-10-24T20:39:09.569Z,15.38
2022-10-24T20:41:38.884Z,15.38
2022-10-24T20:44:07.353Z,11.73
2022-10-24T20:46:36.851Z,14.63
2022-10-24T20:49:05.375Z,21.33
2022-10-24T20:51:33.584Z,19.52
2022-10-24T20:54:02.038Z,12.65
2022-10-24T20:56:30.271Z,10.18
2022-10-24T20:58:58.042Z,10.82
2022-10-24T21:01:28.879Z,10.50
2022-10-24T21:03:58.759Z,10.85
2022-10-24T21:06:32.999Z,11.18
2022-10-24T21:09:07.602Z,9.25
2022-10-24T21:11:36.491Z,8.43
2022-10-24T21:14:10.057Z,8.30
2022-10-24T21:16:38.267Z,9.70
2022-10-24T21:19:06.150Z,10.25
2022-10-24T21:21:34.184Z,21.85
2022-10-24T21:24:05.938Z,27.38
2022-10-24T21:26:38.573Z,15.60
2022-10-24T21:29:14.853Z,14.35
2022-10-24T21:31:52.087Z,16.25
2022-10-24T21:34:20.347Z,14.43
2022-10-24T21:36:49.570Z,16.23
2022-10-24T21:39:18.067Z,14.48
2022-10-24T21:41:45.877Z,10.20
2022-10-24T21:44:14.619Z,10.80
2022-10-24T21:46:42.724Z,8.23
2022-10-24T21:49:11.074Z,7.13
2022-10-24T21:51:41.394Z,7.05
2022-10-24T21:54:19.538Z,8.60
2022-10-24T21:56:48.079Z,10.05
2022-10-24T21:59:19.435Z,29.30
2022-10-24T22:01:49.892Z,28.60
2022-10-24T22:04:18.842Z,33.83
2022-10-24T22:06:47.329Z,21.45
2022-10-24T22:09:19.605Z,15.68
2022-10-24T22:11:47.724Z,11.55
2022-10-24T22:14:16.643Z,13.35
2022-10-24T22:16:45.175Z,13.23
2022-10-24T22:19:14.164Z,10.82
2022-10-24T22:21:50.821Z,8.70
2022-10-24T22:24:22.396Z,7.82
2022-10-24T22:26:51.651Z,7.63
2022-10-24T22:29:22.828Z,9.00
2022-10-24T22:31:53.215Z,8.32
2022-10-24T22:36:59.296Z,7.82
2022-10-24T22:39:27.819Z,8.73
2022-10-24T22:41:55.960Z,11.30
2022-10-24T22:44:24.649Z,10.02
2022-10-24T22:47:13.109Z,10.02
2022-10-24T22:49:53.060Z,9.80
2022-10-24T22:52:21.299Z,10.38
2022-10-24T22:54:49.706Z,12.20
2022-10-24T22:57:17.808Z,10.10
2022-10-24T22:59:45.943Z,9.07
2022-10-24T23:02:44.913Z,8.23
2022-10-24T23:05:43.094Z,10.65
2022-10-24T23:08:28.314Z,7.78
2022-10-24T23:10:56.484Z,10.68
2022-10-24T23:13:24.916Z,7.72
2022-10-24T23:15:57.824Z,9.05
2022-10-24T23:18:25.965Z,9.18
2022-10-24T23:21:09.142Z,10.93
2022-10-24T23:23:37.083Z,9.27
2022-10-24T23:26:26.121Z,10.38
2022-10-24T23:29:36.242Z,8.68
2022-10-24T23:32:06.042Z,8.80
2022-10-24T23:34:35.214Z,8.00
2022-10-24T23:37:06.073Z,8.35
2022-10-24T23:39:35.785Z,7.68
2022-10-24T23:42:07.106Z,8.35
2022-10-24T23:44:35.298Z,8.80
2022-10-24T23:47:53.943Z,9.88
2022-10-24T23:51:04.559Z,8.35
2022-10-24T23:53:53.508Z,6.85
2022-10-24T23:56:25.554Z,7.20
2022-10-24T23:58:54.287Z,6.88
